Time,TemperatureF,DewpointF,PressureIn,WindDirection,WindDirectionDegrees,WindSpeedMPH,WindSpeedGustMPH,Humidity,HourlyPrecipIn,Conditions,Clouds,dailyrainin,SoftwareType,DateUTC
2013-04-12 00:00:00,43.7,38.0,29.70,WSW,248,0.4,1.3,80,0.00,,,0.00,WUHU216HW,2013-04-12 05:00:00,
2013-04-12 00:05:00,43.6,37.8,29.70,West,270,0.9,0.9,80,0.00,,,0.00,WUHU216HW,2013-04-12 05:05:00,
2013-04-12 00:10:00,43.6,37.8,29.70,West,270,2.2,2.2,80,0.00,,,0.00,WUHU216HW,2013-04-12 05:10:00,
2013-04-12 00:15:00,43.4,37.9,29.71,West,270,0.4,2.2,81,0.00,,,0.00,WUHU216HW,2013-04-12 05:15:00,
2013-04-12 00:20:00,43.4,37.9,29.71,West,270,0.9,1.6,81,0.00,,,0.00,WUHU216HW,2013-04-12 05:20:00,
2013-04-12 00:25:00,43.2,37.7,29.71,West,270,0.0,0.9,81,0.00,,,0.00,WUHU216HW,2013-04-12 05:25:00,
2013-04-12 00:30:00,43.0,37.5,29.71,West,270,0.9,0.9,81,0.00,,,0.00,WUHU216HW,2013-04-12 05:30:00,
2013-04-12 00:35:00,42.8,37.4,29.71,West,270,1.3,3.4,81,0.00,,,0.00,WUHU216HW,2013-04-12 05:35:00,
2013-04-12 00:40:00,42.8,37.7,29.71,West,270,1.6,3.4,82,0.00,,,0.00,WUHU216HW,2013-04-12 05:40:00,
2013-04-12 00:45:00,42.5,37.4,29.71,West,270,0.0,2.5,82,0.00,,,0.00,WUHU216HW,2013-04-12 05:45:00,
2013-04-12 00:50:00,42.3,37.2,29.71,West,270,1.1,1.1,82,0.00,,,0.00,WUHU216HW,2013-04-12 05:50:00,
2013-04-12 00:55:00,42.1,37.0,29.71,West,270,1.6,1.6,82,0.00,,,0.00,WUHU216HW,2013-04-12 05:55:00,
2013-04-12 01:00:00,42.1,37.3,29.71,West,270,0.4,1.8,83,0.00,,,0.00,WUHU216HW,2013-04-12 06:00:00,
2013-04-12 01:05:00,41.9,37.1,29.71,West,270,0.0,1.8,83,0.00,,,0.00,WUHU216HW,2013-04-12 06:05:00,
2013-04-12 01:10:00,41.9,37.1,29.71,West,270,0.9,1.3,83,0.00,,,0.00,WUHU216HW,2013-04-12 06:10:00,
2013-04-12 01:15:00,41.8,36.9,29.71,West,270,0.4,1.3,83,0.00,,,0.00,WUHU216HW,2013-04-12 06:15:00,
2013-04-12 01:20:00,41.8,36.9,29.71,West,270,0.4,1.1,83,0.00,,,0.00,WUHU216HW,2013-04-12 06:20:00,
2013-04-12 01:25:00,41.8,37.3,29.71,West,270,0.4,1.6,84,0.00,,,0.00,WUHU216HW,2013-04-12 06:25:00,
2013-04-12 01:30:00,41.8,36.9,29.71,West,270,1.1,2.5,83,0.00,,,0.00,WUHU216HW,2013-04-12 06:30:00,
2013-04-12 01:35:00,41.6,36.7,29.71,West,270,0.0,2.5,83,0.00,,,0.00,WUHU216HW,2013-04-12 06:35:00,
2013-04-12 01:40:00,41.4,36.5,29.71,West,270,0.7,1.6,83,0.00,,,0.00,WUHU216HW,2013-04-12 06:40:00,
2013-04-12 01:45:00,41.4,36.5,29.71,West,270,0.0,1.8,83,0.00,,,0.00,WUHU216HW,2013-04-12 06:45:00,
2013-04-12 01:50:00,41.2,36.4,29.71,West,270,0.7,1.8,83,0.00,,,0.00,WUHU216HW,2013-04-12 06:50:00,
2013-04-12 01:55:00,41.0,36.6,29.71,West,270,0.4,1.3,84,0.00,,,0.00,WUHU216HW,2013-04-12 06:55:00,
2013-04-12 02:00:00,40.9,36.4,29.70,WSW,248,0.0,1.6,84,0.00,,,0.00,WUHU216HW,2013-04-12 07:00:00,
2013-04-12 02:05:00,40.7,36.2,29.70,WSW,248,0.2,1.6,84,0.00,,,0.00,WUHU216HW,2013-04-12 07:05:00,
2013-04-12 02:10:00,40.7,36.2,29.70,WSW,248,0.0,0.2,84,0.00,,,0.00,WUHU216HW,2013-04-12 07:10:00,
2013-04-12 02:15:00,40.5,36.0,29.70,WSW,248,0.0,0.0,84,0.00,,,0.00,WUHU216HW,2013-04-12 07:15:00,
2013-04-12 02:20:00,40.5,36.0,29.70,WSW,248,0.7,0.7,84,0.00,,,0.00,WUHU216HW,2013-04-12 07:20:00,
2013-04-12 02:25:00,40.5,36.0,29.70,West,270,0.0,0.7,84,0.00,,,0.00,WUHU216HW,2013-04-12 07:25:00,
2013-04-12 02:30:00,40.3,35.8,29.70,West,270,0.0,0.4,84,0.00,,,0.00,WUHU216HW,2013-04-12 07:30:00,
2013-04-12 02:35:00,40.3,35.8,29.70,West,270,0.0,0.0,84,0.00,,,0.00,WUHU216HW,2013-04-12 07:35:00,
2013-04-12 02:40:00,40.1,35.6,29.70,West,270,0.0,0.2,84,0.00,,,0.00,WUHU216HW,2013-04-12 07:40:00,
2013-04-12 02:45:00,40.1,35.6,29.70,West,270,0.0,0.7,84,0.00,,,0.00,WUHU216HW,2013-04-12 07:45:00,
2013-04-12 02:50:00,40.1,35.6,29.70,WSW,248,0.0,0.7,84,0.00,,,0.00,WUHU216HW,2013-04-12 07:50:00,
2013-04-12 02:55:00,40.1,35.9,29.69,WSW,248,1.8,1.8,85,0.00,,,0.00,WUHU216HW,2013-04-12 07:55:00,
2013-04-12 03:00:00,40.3,36.5,29.69,West,270,1.6,1.8,86,0.00,,,0.00,WUHU216HW,2013-04-12 08:00:00,
2013-04-12 03:05:00,40.3,36.5,29.69,West,270,1.6,2.0,86,0.00,,,0.00,WUHU216HW,2013-04-12 08:05:00,
2013-04-12 03:10:00,40.5,36.6,29.69,West,270,2.5,2.5,86,0.00,,,0.00,WUHU216HW,2013-04-12 08:10:00,
2013-04-12 03:15:00,40.5,36.6,29.69,WSW,248,0.0,2.5,86,0.00,,,0.00,WUHU216HW,2013-04-12 08:15:00,
2013-04-12 03:20:00,40.3,36.5,29.69,West,270,1.1,1.3,86,0.00,,,0.00,WUHU216HW,2013-04-12 08:20:00,
2013-04-12 03:25:00,40.1,36.3,29.69,West,270,0.0,1.3,86,0.00,,,0.00,WUHU216HW,2013-04-12 08:25:00,
2013-04-12 03:30:00,40.0,36.1,29.69,West,270,0.2,0.9,86,0.00,,,0.00,WUHU216HW,2013-04-12 08:30:00,
2013-04-12 03:35:00,40.0,36.1,29.69,West,270,0.0,0.7,86,0.00,,,0.00,WUHU216HW,2013-04-12 08:35:00,
2013-04-12 03:40:00,39.6,35.7,29.69,West,270,0.0,0.7,86,0.00,,,0.00,WUHU216HW,2013-04-12 08:40:00,
2013-04-12 03:45:00,39.4,35.6,29.69,West,270,0.0,0.0,86,0.00,,,0.00,WUHU216HW,2013-04-12 08:45:00,
2013-04-12 03:50:00,39.2,35.4,29.68,West,270,0.0,0.0,86,0.00,,,0.00,WUHU216HW,2013-04-12 08:50:00,
2013-04-12 03:55:00,39.2,35.4,29.68,West,270,0.0,0.4,86,0.00,,,0.00,WUHU216HW,2013-04-12 08:55:00,
2013-04-12 04:00:00,39.1,35.2,29.68,West,270,0.0,0.4,86,0.00,,,0.00,WUHU216HW,2013-04-12 09:00:00,
2013-04-12 04:05:00,38.9,35.0,29.69,West,270,0.0,0.0,86,0.00,,,0.00,WUHU216HW,2013-04-12 09:05:00,
2013-04-12 04:10:00,38.9,35.0,29.69,West,270,0.0,0.0,86,0.00,,,0.00,WUHU216HW,2013-04-12 09:10:00,
2013-04-12 04:15:00,38.9,35.0,29.68,West,270,0.0,0.0,86,0.00,,,0.00,WUHU216HW,2013-04-12 09:15:00,
2013-04-12 04:20:00,38.7,34.8,29.68,West,270,0.0,0.0,86,0.00,,,0.00,WUHU216HW,2013-04-12 09:20:00,
2013-04-12 04:25:00,38.5,34.7,29.68,West,270,0.0,0.0,86,0.00,,,0.00,WUHU216HW,2013-04-12 09:25:00,
2013-04-12 04:30:00,38.5,34.7,29.68,West,270,0.0,0.0,86,0.00,,,0.00,WUHU216HW,2013-04-12 09:30:00,
2013-04-12 04:35:00,38.5,34.7,29.68,West,270,0.2,0.9,86,0.00,,,0.00,WUHU216HW,2013-04-12 09:35:00,
2013-04-12 04:40:00,38.5,34.7,29.68,WSW,248,0.9,1.6,86,0.00,,,0.00,WUHU216HW,2013-04-12 09:40:00,
2013-04-12 04:45:00,38.5,34.7,29.69,WSW,248,0.0,1.6,86,0.00,,,0.00,WUHU216HW,2013-04-12 09:45:00,
2013-04-12 04:50:00,38.5,34.7,29.69,WSW,248,0.0,0.4,86,0.00,,,0.00,WUHU216HW,2013-04-12 09:50:00,
2013-04-12 04:55:00,38.5,34.9,29.69,WSW,248,0.0,0.7,87,0.00,,,0.00,WUHU216HW,2013-04-12 09:55:00,
2013-04-12 05:00:00,38.5,34.9,29.69,WSW,248,0.0,0.7,87,0.00,,,0.00,WUHU216HW,2013-04-12 10:00:00,
2013-04-12 05:05:00,38.3,34.7,29.69,WSW,248,0.0,0.0,87,0.00,,,0.00,WUHU216HW,2013-04-12 10:05:00,
2013-04-12 05:10:00,38.2,34.6,29.69,WSW,248,1.1,1.1,87,0.00,,,0.00,WUHU216HW,2013-04-12 10:10:00,
2013-04-12 05:15:00,38.2,34.6,29.69,WSW,248,0.0,1.1,87,0.00,,,0.00,WUHU216HW,2013-04-12 10:15:00,
2013-04-12 05:20:00,38.0,34.4,29.69,WSW,248,0.0,0.4,87,0.00,,,0.00,WUHU216HW,2013-04-12 10:20:00,
2013-04-12 05:25:00,38.0,34.4,29.69,WSW,248,1.8,1.8,87,0.00,,,0.00,WUHU216HW,2013-04-12 10:25:00,
2013-04-12 05:30:00,38.2,34.6,29.69,West,270,0.0,2.7,87,0.00,,,0.00,WUHU216HW,2013-04-12 10:30:00,
2013-04-12 05:35:00,38.0,34.4,29.69,West,270,0.0,2.7,87,0.00,,,0.00,WUHU216HW,2013-04-12 10:35:00,
2013-04-12 05:40:00,37.8,34.2,29.69,West,270,0.0,0.0,87,0.00,,,0.00,WUHU216HW,2013-04-12 10:40:00,
2013-04-12 05:45:00,37.8,34.2,29.69,West,270,0.0,0.0,87,0.00,,,0.00,WUHU216HW,2013-04-12 10:45:00,
2013-04-12 05:50:00,37.8,34.2,29.70,West,270,0.0,0.2,87,0.00,,,0.00,WUHU216HW,2013-04-12 10:50:00,
2013-04-12 05:55:00,37.8,34.2,29.70,West,270,0.0,0.2,87,0.00,,,0.00,WUHU216HW,2013-04-12 10:55:00,
2013-04-12 06:00:00,37.8,34.2,29.70,West,270,0.0,0.0,87,0.00,,,0.00,WUHU216HW,2013-04-12 11:00:00,
2013-04-12 06:05:00,37.6,34.0,29.70,West,270,0.7,0.7,87,0.00,,,0.00,WUHU216HW,2013-04-12 11:05:00,
2013-04-12 06:10:00,37.6,34.0,29.70,West,270,0.0,0.9,87,0.00,,,0.00,WUHU216HW,2013-04-12 11:10:00,
2013-04-12 06:15:00,37.6,34.0,29.71,West,270,0.0,0.9,87,0.00,,,0.00,WUHU216HW,2013-04-12 11:15:00,
2013-04-12 06:20:00,37.6,34.0,29.71,West,270,0.0,0.4,87,0.00,,,0.00,WUHU216HW,2013-04-12 11:20:00,
2013-04-12 06:25:00,37.6,34.0,29.71,WSW,248,1.8,1.8,87,0.00,,,0.00,WUHU216HW,2013-04-12 11:25:00,
2013-04-12 06:30:00,37.6,34.4,29.71,West,270,1.1,2.2,88,0.00,,,0.00,WUHU216HW,2013-04-12 11:30:00,
2013-04-12 06:35:00,37.6,34.4,29.72,West,270,1.3,2.2,88,0.00,,,0.00,WUHU216HW,2013-04-12 11:35:00,
2013-04-12 06:40:00,37.6,34.4,29.72,WSW,248,2.9,2.9,88,0.00,,,0.00,WUHU216HW,2013-04-12 11:40:00,
2013-04-12 06:45:00,37.4,34.2,29.71,West,270,0.2,2.9,88,0.00,,,0.00,WUHU216HW,2013-04-12 11:45:00,
2013-04-12 06:50:00,37.3,33.7,29.72,WSW,248,0.0,2.0,87,0.00,,,0.00,WUHU216HW,2013-04-12 11:50:00,
2013-04-12 06:55:00,37.1,33.5,29.72,NW,315,0.2,0.9,87,0.00,,,0.00,WUHU216HW,2013-04-12 11:55:00,
2013-04-12 07:00:00,37.1,33.9,29.72,WSW,248,0.4,0.4,88,0.00,,,0.00,WUHU216HW,2013-04-12 12:00:00,
2013-04-12 07:05:00,37.1,33.9,29.72,WSW,248,0.2,0.4,88,0.00,,,0.00,WUHU216HW,2013-04-12 12:05:00,
2013-04-12 07:10:00,37.1,33.9,29.72,WSW,248,0.0,0.4,88,0.00,,,0.00,WUHU216HW,2013-04-12 12:10:00,
2013-04-12 07:15:00,37.3,34.0,29.72,WSW,248,0.9,0.9,88,0.00,,,0.00,WUHU216HW,2013-04-12 12:15:00,
2013-04-12 07:20:00,37.4,34.5,29.73,WSW,248,0.0,0.9,89,0.00,,,0.00,WUHU216HW,2013-04-12 12:20:00,
2013-04-12 07:25:00,37.4,34.5,29.73,West,270,0.7,0.7,89,0.00,,,0.00,WUHU216HW,2013-04-12 12:25:00,
2013-04-12 07:30:00,37.8,34.8,29.73,West,270,1.3,1.8,89,0.00,,,0.00,WUHU216HW,2013-04-12 12:30:00,
2013-04-12 07:35:00,38.2,35.2,29.73,West,270,0.4,1.8,89,0.00,,,0.00,WUHU216HW,2013-04-12 12:35:00,
2013-04-12 07:40:00,38.5,35.8,29.74,West,270,0.2,1.8,90,0.00,,,0.00,WUHU216HW,2013-04-12 12:40:00,
2013-04-12 07:45:00,38.9,36.2,29.74,West,270,0.0,1.8,90,0.00,,,0.00,WUHU216HW,2013-04-12 12:45:00,
2013-04-12 07:50:00,39.2,36.5,29.74,West,270,0.0,1.1,90,0.00,,,0.00,WUHU216HW,2013-04-12 12:50:00,
2013-04-12 07:55:00,39.8,37.1,29.74,West,270,0.2,1.1,90,0.00,,,0.00,WUHU216HW,2013-04-12 12:55:00,
2013-04-12 08:00:00,41.8,39.1,29.74,West,270,0.0,0.2,90,0.00,,,0.00,WUHU216HW,2013-04-12 13:00:00,
2013-04-12 08:05:00,46.1,43.7,29.75,West,270,0.0,0.0,91,0.00,,,0.00,WUHU216HW,2013-04-12 13:05:00,
2013-04-12 08:10:00,50.6,48.0,29.75,West,270,0.0,0.0,91,0.00,,,0.00,WUHU216HW,2013-04-12 13:10:00,
2013-04-12 08:15:00,54.9,50.8,29.75,West,270,0.0,0.7,86,0.00,,,0.00,WUHU216HW,2013-04-12 13:15:00,
2013-04-12 08:20:00,58.7,52.6,29.75,West,270,0.4,0.7,80,0.00,,,0.00,WUHU216HW,2013-04-12 13:20:00,
2013-04-12 08:25:00,62.5,55.1,29.75,SW,225,0.0,1.1,77,0.00,,,0.00,WUHU216HW,2013-04-12 13:25:00,
2013-04-12 08:30:00,66.2,56.2,29.75,SW,225,0.0,1.1,70,0.00,,,0.00,WUHU216HW,2013-04-12 13:30:00,
2013-04-12 08:35:00,70.0,58.5,29.76,SW,225,0.4,0.4,67,0.00,,,0.00,WUHU216HW,2013-04-12 13:35:00,
2013-04-12 08:40:00,73.3,59.9,29.76,SW,225,0.4,0.4,63,0.00,,,0.00,WUHU216HW,2013-04-12 13:40:00,
2013-04-12 08:45:00,74.2,57.4,29.76,SW,225,0.0,0.7,56,0.00,,,0.00,WUHU216HW,2013-04-12 13:45:00,
2013-04-12 08:50:00,75.8,59.0,29.76,SW,225,1.1,1.1,56,0.00,,,0.00,WUHU216HW,2013-04-12 13:50:00,
2013-04-12 08:55:00,78.1,59.6,29.76,SSW,203,0.4,1.1,53,0.00,,,0.00,WUHU216HW,2013-04-12 13:55:00,
2013-04-12 09:00:00,79.6,58.2,29.76,SSE,158,0.4,1.8,48,0.00,,,0.00,WUHU216HW,2013-04-12 14:00:00,
2013-04-12 09:05:00,81.4,59.1,29.76,SSE,158,1.1,1.8,47,0.00,,,0.00,WUHU216HW,2013-04-12 14:05:00,
2013-04-12 09:10:00,81.4,53.3,29.77,South,180,0.9,2.0,38,0.00,,,0.00,WUHU216HW,2013-04-12 14:10:00,
2013-04-12 09:15:00,81.5,56.3,29.77,SSE,158,1.1,2.0,42,0.00,,,0.00,WUHU216HW,2013-04-12 14:15:00,
2013-04-12 09:20:00,81.4,53.3,29.77,SW,225,4.0,4.0,38,0.00,,,0.00,WUHU216HW,2013-04-12 14:20:00,
2013-04-12 09:25:00,79.6,47.8,29.77,SW,225,6.3,6.9,33,0.00,,,0.00,WUHU216HW,2013-04-12 14:25:00,
2013-04-12 09:30:00,77.9,48.0,29.77,SW,225,4.7,6.9,35,0.00,,,0.00,WUHU216HW,2013-04-12 14:30:00,
2013-04-12 09:35:00,77.6,50.7,29.78,WSW,248,3.4,6.7,39,0.00,,,0.00,WUHU216HW,2013-04-12 14:35:00,
2013-04-12 09:40:00,78.1,49.6,29.78,WSW,248,4.3,6.0,37,0.00,,,0.00,WUHU216HW,2013-04-12 14:40:00,
2013-04-12 09:45:00,78.8,50.2,29.78,SW,225,3.4,5.1,37,0.00,,,0.00,WUHU216HW,2013-04-12 14:45:00,
2013-04-12 09:50:00,81.0,52.2,29.78,West,270,4.7,5.8,37,0.00,,,0.00,WUHU216HW,2013-04-12 14:50:00,
2013-04-12 09:55:00,82.1,50.0,29.78,SW,225,1.1,5.8,33,0.00,,,0.00,WUHU216HW,2013-04-12 14:55:00,
2013-04-12 10:00:00,83.5,51.2,29.78,SW,225,2.5,3.4,33,0.00,,,0.00,WUHU216HW,2013-04-12 15:00:00,
2013-04-12 10:05:00,84.8,50.8,29.78,South,180,2.7,3.8,31,0.00,,,0.00,WUHU216HW,2013-04-12 15:05:00,
2013-04-12 10:10:00,83.0,47.4,29.78,West,270,2.5,5.4,29,0.00,,,0.00,WUHU216HW,2013-04-12 15:10:00,
2013-04-12 10:15:00,80.3,46.9,29.79,South,180,4.0,5.4,31,0.00,,,0.00,WUHU216HW,2013-04-12 15:15:00,
2013-04-12 10:20:00,80.6,47.3,29.78,WSW,248,6.3,6.3,31,0.00,,,0.00,WUHU216HW,2013-04-12 15:20:00,
2013-04-12 10:25:00,81.0,47.5,29.79,South,180,3.4,7.2,31,0.00,,,0.00,WUHU216HW,2013-04-12 15:25:00,
2013-04-12 10:30:00,80.3,46.9,29.79,South,180,4.0,7.2,31,0.00,,,0.00,WUHU216HW,2013-04-12 15:30:00,
2013-04-12 10:35:00,80.5,47.8,29.79,SSE,158,3.4,5.6,32,0.00,,,0.00,WUHU216HW,2013-04-12 15:35:00,
2013-04-12 10:40:00,83.3,51.0,29.79,SW,225,0.9,3.8,33,0.00,,,0.00,WUHU216HW,2013-04-12 15:40:00,
2013-04-12 10:45:00,85.1,49.2,29.79,SE,135,2.2,4.9,29,0.00,,,0.00,WUHU216HW,2013-04-12 15:45:00,
2013-04-12 10:50:00,83.7,48.0,29.79,South,180,4.7,4.9,29,0.00,,,0.00,WUHU216HW,2013-04-12 15:50:00,
2013-04-12 10:55:00,82.8,48.3,29.79,South,180,4.0,4.9,30,0.00,,,0.00,WUHU216HW,2013-04-12 15:55:00,
2013-04-12 11:00:00,81.5,47.2,29.79,South,180,2.7,4.9,30,0.00,,,0.00,WUHU216HW,2013-04-12 16:00:00,
2013-04-12 11:05:00,81.9,48.3,29.79,South,180,4.7,5.8,31,0.00,,,0.00,WUHU216HW,2013-04-12 16:05:00,
2013-04-12 11:10:00,81.4,47.8,29.79,SE,135,6.7,6.7,31,0.00,,,0.00,WUHU216HW,2013-04-12 16:10:00,
2013-04-12 11:15:00,80.5,47.1,29.79,SSE,158,5.4,6.7,31,0.00,,,0.00,WUHU216HW,2013-04-12 16:15:00,
2013-04-12 11:20:00,80.5,47.1,29.79,SSE,158,3.6,6.3,31,0.00,,,0.00,WUHU216HW,2013-04-12 16:20:00,
2013-04-12 11:25:00,81.0,48.2,29.79,SSE,158,2.7,4.7,32,0.00,,,0.00,WUHU216HW,2013-04-12 16:25:00,
2013-04-12 11:30:00,81.0,47.5,29.79,SSW,203,2.7,6.0,31,0.00,,,0.00,WUHU216HW,2013-04-12 16:30:00,
2013-04-12 11:35:00,81.0,47.5,29.79,SSE,158,1.6,7.6,31,0.00,,,0.00,WUHU216HW,2013-04-12 16:35:00,
2013-04-12 11:40:00,81.0,48.2,29.79,South,180,5.1,7.6,32,0.00,,,0.00,WUHU216HW,2013-04-12 16:40:00,
2013-04-12 11:45:00,81.4,48.6,29.79,South,180,2.0,5.6,32,0.00,,,0.00,WUHU216HW,2013-04-12 16:45:00,
2013-04-12 11:50:00,82.6,48.1,29.79,SSE,158,2.5,6.0,30,0.00,,,0.00,WUHU216HW,2013-04-12 16:50:00,
2013-04-12 11:55:00,81.5,48.0,29.79,South,180,4.7,6.7,31,0.00,,,0.00,WUHU216HW,2013-04-12 16:55:00,
2013-04-12 12:00:00,81.0,48.2,29.79,ESE,113,6.7,6.7,32,0.00,,,0.00,WUHU216HW,2013-04-12 17:00:00,
2013-04-12 12:06:00,80.1,47.5,29.79,SW,225,2.7,6.7,32,0.00,,,0.00,WUHU216HW,2013-04-12 17:06:00,
2013-04-12 12:11:00,79.6,47.0,29.79,South,180,4.7,6.9,32,0.00,,,0.00,WUHU216HW,2013-04-12 17:11:00,
2013-04-12 12:16:00,81.0,49.1,29.78,SW,225,1.3,6.9,33,0.00,,,0.00,WUHU216HW,2013-04-12 17:16:00,
2013-04-12 12:21:00,81.7,48.1,29.78,SSE,158,2.5,6.3,31,0.00,,,0.00,WUHU216HW,2013-04-12 17:21:00,
2013-04-12 12:26:00,81.5,48.0,29.78,SSW,203,1.8,6.5,31,0.00,,,0.00,WUHU216HW,2013-04-12 17:26:00,
2013-04-12 12:31:00,82.4,47.9,29.78,SE,135,5.6,6.5,30,0.00,,,0.00,WUHU216HW,2013-04-12 17:31:00,
2013-04-12 12:36:00,81.9,45.4,29.78,SE,135,4.0,7.6,28,0.00,,,0.00,WUHU216HW,2013-04-12 17:36:00,
2013-04-12 12:41:00,80.6,45.4,29.77,SE,135,4.7,8.5,29,0.00,,,0.00,WUHU216HW,2013-04-12 17:41:00,
2013-04-12 12:46:00,79.6,44.5,29.77,ESE,113,5.6,8.5,29,0.00,,,0.00,WUHU216HW,2013-04-12 17:46:00,
2013-04-12 12:51:00,79.7,44.6,29.77,ENE,68,8.3,8.3,29,0.00,,,0.00,WUHU216HW,2013-04-12 17:51:00,
2013-04-12 12:56:00,79.9,43.8,29.77,SE,135,4.0,9.4,28,0.00,,,0.00,WUHU216HW,2013-04-12 17:56:00,
2013-04-12 13:01:00,79.9,43.8,29.76,SE,135,4.0,9.4,28,0.00,,,0.00,WUHU216HW,2013-04-12 18:01:00,
2013-04-12 13:06:00,80.5,44.2,29.76,SW,225,2.7,8.3,28,0.00,,,0.00,WUHU216HW,2013-04-12 18:06:00,
2013-04-12 13:11:00,81.7,44.2,29.76,SE,135,4.5,8.3,27,0.00,,,0.00,WUHU216HW,2013-04-12 18:11:00,
2013-04-12 13:17:00,81.2,42.7,29.76,SE,135,3.1,8.1,26,0.00,,,0.00,WUHU216HW,2013-04-12 18:17:00,
2013-04-12 13:22:00,81.4,43.9,29.76,SE,135,4.5,6.7,27,0.00,,,0.00,WUHU216HW,2013-04-12 18:22:00,
2013-04-12 13:29:00,81.0,42.6,29.75,ESE,113,2.5,8.5,26,0.00,,,0.00,WUHU216HW,2013-04-12 18:29:00,
2013-04-12 13:31:00,80.6,43.3,29.75,SSE,158,5.6,8.5,27,0.00,,,0.00,WUHU216HW,2013-04-12 18:31:00,
2013-04-12 13:37:00,80.1,43.8,29.75,SSE,158,6.7,7.4,28,0.00,,,0.00,WUHU216HW,2013-04-12 18:37:00,
2013-04-12 13:43:00,79.9,41.6,29.75,SSE,158,4.5,8.1,26,0.00,,,0.00,WUHU216HW,2013-04-12 18:43:00,
2013-04-12 13:49:00,80.8,44.5,29.74,ESE,113,7.2,8.1,28,0.00,,,0.00,WUHU216HW,2013-04-12 18:49:00,
2013-04-12 13:55:00,81.4,42.8,29.74,SE,135,5.8,7.2,26,0.00,,,0.00,WUHU216HW,2013-04-12 18:55:00,
2013-04-12 14:01:00,81.0,41.5,29.74,SE,135,4.3,5.8,25,0.00,,,0.00,WUHU216HW,2013-04-12 19:01:00,
2013-04-12 14:07:00,81.4,43.9,29.73,SE,135,5.8,5.8,27,0.00,,,0.00,WUHU216HW,2013-04-12 19:07:00,
2013-04-12 14:13:00,81.2,42.7,29.73,East,90,1.8,5.8,26,0.00,,,0.00,WUHU216HW,2013-04-12 19:13:00,
2013-04-12 14:26:00,81.0,42.6,29.73,SSW,203,0.9,8.3,26,0.00,,,0.00,WUHU216HW,2013-04-12 19:26:00,
2013-04-12 14:31:00,82.3,43.6,29.73,SSW,203,6.3,9.2,26,0.00,,,0.00,WUHU216HW,2013-04-12 19:31:00,
2013-04-12 14:36:00,81.7,45.2,29.72,South,180,6.3,9.2,28,0.00,,,0.00,WUHU216HW,2013-04-12 19:36:00,
2013-04-12 14:42:00,81.5,45.1,29.72,SSE,158,3.1,10.5,28,0.00,,,0.00,WUHU216HW,2013-04-12 19:42:00,
2013-04-12 14:47:00,81.7,45.2,29.72,SSW,203,1.6,10.5,28,0.00,,,0.00,WUHU216HW,2013-04-12 19:47:00,
2013-04-12 14:52:00,82.1,45.6,29.71,SSE,158,7.2,7.2,28,0.00,,,0.00,WUHU216HW,2013-04-12 19:52:00,
2013-04-12 14:57:00,81.9,43.3,29.71,South,180,3.8,7.2,26,0.00,,,0.00,WUHU216HW,2013-04-12 19:57:00,
2013-04-12 15:02:00,81.9,45.4,29.71,East,90,2.0,6.0,28,0.00,,,0.00,WUHU216HW,2013-04-12 20:02:00,
2013-04-12 15:07:00,82.1,45.6,29.71,ESE,113,3.8,5.1,28,0.00,,,0.00,WUHU216HW,2013-04-12 20:07:00,
2013-04-12 15:12:00,81.0,44.6,29.71,SE,135,3.4,4.7,28,0.00,,,0.00,WUHU216HW,2013-04-12 20:12:00,
2013-04-12 15:17:00,79.9,43.8,29.70,SE,135,2.0,7.2,28,0.00,,,0.00,WUHU216HW,2013-04-12 20:17:00,
2013-04-12 15:22:00,79.2,43.0,29.70,SE,135,2.7,6.7,28,0.00,,,0.00,WUHU216HW,2013-04-12 20:22:00,
2013-04-12 15:27:00,78.8,42.8,29.70,South,180,4.9,6.7,28,0.00,,,0.00,WUHU216HW,2013-04-12 20:27:00,
2013-04-12 15:32:00,78.5,42.5,29.69,SSE,158,2.7,6.0,28,0.00,,,0.00,WUHU216HW,2013-04-12 20:32:00,
2013-04-12 15:37:00,78.7,42.6,29.69,SSE,158,5.1,5.4,28,0.00,,,0.00,WUHU216HW,2013-04-12 20:37:00,
2013-04-12 15:42:00,78.5,40.3,29.69,SE,135,1.8,5.1,26,0.00,,,0.00,WUHU216HW,2013-04-12 20:42:00,
2013-04-12 15:47:00,78.5,43.5,29.68,SSW,203,3.6,6.9,29,0.00,,,0.00,WUHU216HW,2013-04-12 20:47:00,
2013-04-12 15:52:00,78.7,42.6,29.68,SW,225,2.5,6.9,28,0.00,,,0.00,WUHU216HW,2013-04-12 20:52:00,
2013-04-12 15:57:00,78.7,41.6,29.68,SE,135,5.1,5.4,27,0.00,,,0.00,WUHU216HW,2013-04-12 20:57:00,
2013-04-12 16:02:00,78.5,42.5,29.68,ESE,113,3.8,5.8,28,0.00,,,0.00,WUHU216HW,2013-04-12 21:02:00,
2013-04-12 16:07:00,78.5,41.4,29.68,SSE,158,0.7,5.8,27,0.00,,,0.00,WUHU216HW,2013-04-12 21:07:00,
2013-04-12 16:12:00,78.3,43.4,29.67,SSE,158,2.5,7.2,29,0.00,,,0.00,WUHU216HW,2013-04-12 21:12:00,
2013-04-12 16:17:00,78.3,42.3,29.67,South,180,2.7,7.2,28,0.00,,,0.00,WUHU216HW,2013-04-12 21:17:00,
2013-04-12 16:22:00,78.3,42.3,29.67,South,180,4.7,5.4,28,0.00,,,0.00,WUHU216HW,2013-04-12 21:22:00,
2013-04-12 16:27:00,78.1,42.1,29.67,ESE,113,0.4,5.4,28,0.00,,,0.00,WUHU216HW,2013-04-12 21:27:00,
2013-04-12 16:32:00,78.1,42.1,29.66,SSE,158,2.5,6.3,28,0.00,,,0.00,WUHU216HW,2013-04-12 21:32:00,
2013-04-12 16:37:00,78.1,41.1,29.66,South,180,4.3,7.2,27,0.00,,,0.00,WUHU216HW,2013-04-12 21:37:00,
2013-04-12 16:42:00,78.1,42.1,29.66,SE,135,2.7,7.2,28,0.00,,,0.00,WUHU216HW,2013-04-12 21:42:00,
2013-04-12 16:47:00,78.1,42.1,29.66,ESE,113,2.9,5.1,28,0.00,,,0.00,WUHU216HW,2013-04-12 21:47:00,
2013-04-12 16:52:00,77.9,43.0,29.66,South,180,4.3,4.7,29,0.00,,,0.00,WUHU216HW,2013-04-12 21:52:00,
2013-04-12 16:57:00,78.1,41.1,29.66,SW,225,2.2,5.4,27,0.00,,,0.00,WUHU216HW,2013-04-12 21:57:00,
2013-04-12 17:02:00,77.9,42.0,29.66,SSW,203,4.3,5.4,28,0.00,,,0.00,WUHU216HW,2013-04-12 22:02:00,
2013-04-12 17:07:00,77.9,43.0,29.66,SSE,158,6.0,6.0,29,0.00,,,0.00,WUHU216HW,2013-04-12 22:07:00,
2013-04-12 17:12:00,77.8,42.9,29.66,South,180,4.7,7.4,29,0.00,,,0.00,WUHU216HW,2013-04-12 22:12:00,
2013-04-12 17:17:00,77.6,41.8,29.66,SE,135,5.4,7.4,28,0.00,,,0.00,WUHU216HW,2013-04-12 22:17:00,
2013-04-12 17:22:00,77.4,41.6,29.66,SW,225,4.0,6.7,28,0.00,,,0.00,WUHU216HW,2013-04-12 22:22:00,
2013-04-12 17:27:00,77.2,41.4,29.66,SSE,158,3.8,7.4,28,0.00,,,0.00,WUHU216HW,2013-04-12 22:27:00,
2013-04-12 17:32:00,77.0,42.3,29.66,SSE,158,4.3,7.4,29,0.00,,,0.00,WUHU216HW,2013-04-12 22:32:00,
2013-04-12 17:37:00,77.0,42.3,29.65,SSE,158,6.3,7.2,29,0.00,,,0.00,WUHU216HW,2013-04-12 22:37:00,
2013-04-12 17:42:00,77.0,42.3,29.65,ESE,113,3.6,6.3,29,0.00,,,0.00,WUHU216HW,2013-04-12 22:42:00,
2013-04-12 17:47:00,76.9,41.1,29.66,SSE,158,7.4,7.4,28,0.00,,,0.00,WUHU216HW,2013-04-12 22:47:00,
2013-04-12 17:52:00,76.7,42.0,29.65,SE,135,4.3,7.4,29,0.00,,,0.00,WUHU216HW,2013-04-12 22:52:00,
2013-04-12 17:57:00,76.7,42.0,29.66,ESE,113,3.4,7.4,29,0.00,,,0.00,WUHU216HW,2013-04-12 22:57:00,
2013-04-12 18:02:00,76.5,41.9,29.66,SW,225,7.8,7.8,29,0.00,,,0.00,WUHU216HW,2013-04-12 23:02:00,
2013-04-12 18:07:00,76.3,41.7,29.66,SW,225,2.0,7.8,29,0.00,,,0.00,WUHU216HW,2013-04-12 23:07:00,
2013-04-12 18:12:00,76.1,41.6,29.66,South,180,3.4,7.6,29,0.00,,,0.00,WUHU216HW,2013-04-12 23:12:00,
2013-04-12 18:17:00,76.0,41.4,29.66,South,180,4.7,6.5,29,0.00,,,0.00,WUHU216HW,2013-04-12 23:17:00,
2013-04-12 18:22:00,76.0,41.4,29.66,SE,135,4.7,5.8,29,0.00,,,0.00,WUHU216HW,2013-04-12 23:22:00,
2013-04-12 18:27:00,75.8,42.2,29.66,South,180,4.7,5.8,30,0.00,,,0.00,WUHU216HW,2013-04-12 23:27:00,
2013-04-12 18:32:00,75.6,42.8,29.66,SE,135,1.8,5.1,31,0.00,,,0.00,WUHU216HW,2013-04-12 23:32:00,
2013-04-12 18:37:00,75.6,42.8,29.66,SSE,158,5.4,5.8,31,0.00,,,0.00,WUHU216HW,2013-04-12 23:37:00,
2013-04-12 18:42:00,75.4,42.0,29.66,ESE,113,3.4,5.8,30,0.00,,,0.00,WUHU216HW,2013-04-12 23:42:00,
2013-04-12 18:47:00,75.4,42.7,29.66,SE,135,5.8,5.8,31,0.00,,,0.00,WUHU216HW,2013-04-12 23:47:00,
2013-04-12 18:52:00,75.2,43.3,29.66,SE,135,6.0,6.0,32,0.00,,,0.00,WUHU216HW,2013-04-12 23:52:00,
2013-04-12 18:57:00,75.1,43.1,29.66,SSE,158,1.1,6.0,32,0.00,,,0.00,WUHU216HW,2013-04-12 23:57:00,
2013-04-12 19:02:00,74.9,42.9,29.66,SE,135,4.9,6.9,32,0.00,,,0.00,WUHU216HW,2013-04-13 00:02:00,
2013-04-12 19:07:00,74.5,42.7,29.66,ESE,113,3.6,8.5,32,0.00,,,0.00,WUHU216HW,2013-04-13 00:07:00,
2013-04-12 19:12:00,74.5,42.7,29.66,SE,135,5.1,8.5,32,0.00,,,0.00,WUHU216HW,2013-04-13 00:12:00,
2013-04-12 19:17:00,74.3,42.5,29.66,SSE,158,2.5,6.9,32,0.00,,,0.00,WUHU216HW,2013-04-13 00:17:00,
2013-04-12 19:22:00,74.0,42.9,29.66,SE,135,2.7,5.1,33,0.00,,,0.00,WUHU216HW,2013-04-13 00:22:00,
2013-04-12 19:27:00,73.6,42.6,29.66,South,180,3.8,5.1,33,0.00,,,0.00,WUHU216HW,2013-04-13 00:27:00,
2013-04-12 19:32:00,73.3,42.3,29.66,ESE,113,2.7,5.1,33,0.00,,,0.00,WUHU216HW,2013-04-13 00:32:00,
2013-04-12 19:37:00,72.9,42.8,29.66,SE,135,1.6,3.8,34,0.00,,,0.00,WUHU216HW,2013-04-13 00:37:00,
2013-04-12 19:42:00,72.4,43.0,29.66,South,180,0.4,3.8,35,0.00,,,0.00,WUHU216HW,2013-04-13 00:42:00,
2013-04-12 19:48:00,71.6,42.4,29.66,SSE,158,0.4,2.0,35,0.00,,,0.00,WUHU216HW,2013-04-13 00:48:00,
2013-04-12 19:52:00,71.1,43.4,29.66,SSE,158,0.0,0.9,37,0.00,,,0.00,WUHU216HW,2013-04-13 00:52:00,
2013-04-12 19:57:00,70.4,43.5,29.67,SSE,158,0.0,0.9,38,0.00,,,0.00,WUHU216HW,2013-04-13 00:57:00,
2013-04-12 20:03:00,69.8,43.0,29.67,ESE,113,0.0,1.8,38,0.00,,,0.00,WUHU216HW,2013-04-13 01:03:00,
2013-04-12 20:08:00,69.1,43.1,29.67,ESE,113,0.0,1.8,39,0.00,,,0.00,WUHU216HW,2013-04-13 01:08:00,
2013-04-12 20:12:00,68.4,42.4,29.67,ESE,113,0.0,0.4,39,0.00,,,0.00,WUHU216HW,2013-04-13 01:12:00,
2013-04-12 20:17:00,67.3,41.5,29.67,ESE,113,0.0,0.0,39,0.00,,,0.00,WUHU216HW,2013-04-13 01:17:00,
2013-04-12 20:22:00,66.4,41.4,29.67,ESE,113,0.0,0.0,40,0.00,,,0.00,WUHU216HW,2013-04-13 01:22:00,
2013-04-12 20:27:00,65.5,41.8,29.68,ESE,113,0.0,0.0,42,0.00,,,0.00,WUHU216HW,2013-04-13 01:27:00,
2013-04-12 20:32:00,64.6,41.5,29.68,ESE,113,0.0,0.0,43,0.00,,,0.00,WUHU216HW,2013-04-13 01:32:00,
2013-04-12 20:37:00,63.9,42.0,29.68,ESE,113,0.0,0.0,45,0.00,,,0.00,WUHU216HW,2013-04-13 01:37:00,
2013-04-12 20:42:00,63.2,42.0,29.68,ESE,113,0.0,0.0,46,0.00,,,0.00,WUHU216HW,2013-04-13 01:42:00,
2013-04-12 20:47:00,62.6,42.0,29.68,ESE,113,0.0,0.0,47,0.00,,,0.00,WUHU216HW,2013-04-13 01:47:00,
2013-04-12 20:52:00,61.9,41.9,29.68,ESE,113,0.0,0.0,48,0.00,,,0.00,WUHU216HW,2013-04-13 01:52:00,
2013-04-12 20:57:00,61.4,42.6,29.68,ESE,113,0.0,0.0,50,0.00,,,0.00,WUHU216HW,2013-04-13 01:57:00,
2013-04-12 21:02:00,60.8,42.6,29.69,ESE,113,0.0,0.0,51,0.00,,,0.00,WUHU216HW,2013-04-13 02:02:00,
2013-04-12 21:08:00,60.5,42.3,29.69,ESE,113,0.0,0.0,51,0.00,,,0.00,WUHU216HW,2013-04-13 02:08:00,
2013-04-12 21:13:00,59.8,42.1,29.69,ESE,113,0.0,0.0,52,0.00,,,0.00,WUHU216HW,2013-04-13 02:13:00,
2013-04-12 21:18:00,59.2,42.6,29.69,ESE,113,0.0,0.0,54,0.00,,,0.00,WUHU216HW,2013-04-13 02:18:00,
2013-04-12 21:23:00,58.9,43.1,29.69,ESE,113,0.0,0.0,56,0.00,,,0.00,WUHU216HW,2013-04-13 02:23:00,
2013-04-12 21:28:00,58.5,42.9,29.69,ESE,113,0.0,0.0,56,0.00,,,0.00,WUHU216HW,2013-04-13 02:28:00,
2013-04-12 21:33:00,58.0,43.3,29.70,ESE,113,0.0,0.0,58,0.00,,,0.00,WUHU216HW,2013-04-13 02:33:00,
2013-04-12 21:38:00,57.8,43.1,29.70,ESE,113,0.0,0.0,58,0.00,,,0.00,WUHU216HW,2013-04-13 02:38:00,
2013-04-12 21:43:00,57.4,42.8,29.70,ESE,113,0.0,0.0,58,0.00,,,0.00,WUHU216HW,2013-04-13 02:43:00,
2013-04-12 21:48:00,57.2,42.7,29.70,ESE,113,0.0,0.0,58,0.00,,,0.00,WUHU216HW,2013-04-13 02:48:00,
2013-04-12 21:53:00,56.7,42.6,29.70,ESE,113,0.0,0.0,59,0.00,,,0.00,WUHU216HW,2013-04-13 02:53:00,
2013-04-12 21:58:00,56.5,42.8,29.71,ESE,113,0.0,0.0,60,0.00,,,0.00,WUHU216HW,2013-04-13 02:58:00,
2013-04-12 22:03:00,56.2,42.5,29.71,ESE,113,0.0,0.0,60,0.00,,,0.00,WUHU216HW,2013-04-13 03:03:00,
2013-04-12 22:08:00,55.8,42.6,29.71,ESE,113,0.0,0.0,61,0.00,,,0.00,WUHU216HW,2013-04-13 03:08:00,
2013-04-12 22:13:00,55.4,42.6,29.71,ESE,113,0.0,0.0,62,0.00,,,0.00,WUHU216HW,2013-04-13 03:13:00,
2013-04-12 22:18:00,55.3,42.9,29.72,ESE,113,0.0,0.7,63,0.00,,,0.00,WUHU216HW,2013-04-13 03:18:00,
2013-04-12 22:23:00,55.1,42.7,29.72,ESE,113,0.0,0.7,63,0.00,,,0.00,WUHU216HW,2013-04-13 03:23:00,
2013-04-12 22:28:00,54.7,42.3,29.72,ESE,113,0.0,0.0,63,0.00,,,0.00,WUHU216HW,2013-04-13 03:28:00,
2013-04-12 22:33:00,54.4,42.4,29.72,ESE,113,0.0,0.0,64,0.00,,,0.00,WUHU216HW,2013-04-13 03:33:00,
2013-04-12 22:38:00,54.0,42.0,29.72,ESE,113,0.0,0.0,64,0.00,,,0.00,WUHU216HW,2013-04-13 03:38:00,
2013-04-12 22:43:00,53.6,42.1,29.72,ESE,113,0.0,0.0,65,0.00,,,0.00,WUHU216HW,2013-04-13 03:43:00,
2013-04-12 22:48:00,53.5,42.4,29.72,ESE,113,0.0,0.0,66,0.00,,,0.00,WUHU216HW,2013-04-13 03:48:00,
2013-04-12 22:53:00,53.1,42.4,29.72,ESE,113,0.0,0.0,67,0.00,,,0.00,WUHU216HW,2013-04-13 03:53:00,
2013-04-12 22:58:00,52.9,42.2,29.73,ESE,113,0.0,0.0,67,0.00,,,0.00,WUHU216HW,2013-04-13 03:58:00,
2013-04-12 23:00:00,52.9,42.2,29.73,ESE,113,0.0,0.0,67,0.00,,,0.00,WUHU216HW,2013-04-13 04:00:00,
2013-04-12 23:05:00,52.6,42.0,29.73,ESE,113,0.0,0.0,67,0.00,,,0.00,WUHU216HW,2013-04-13 04:05:00,
2013-04-12 23:10:00,52.4,42.1,29.73,ESE,113,0.0,0.4,68,0.00,,,0.00,WUHU216HW,2013-04-13 04:10:00,
2013-04-12 23:15:00,52.2,41.9,29.73,ESE,113,0.4,0.4,68,0.00,,,0.00,WUHU216HW,2013-04-13 04:15:00,
2013-04-12 23:20:00,52.0,42.2,29.74,ESE,113,0.0,0.4,69,0.00,,,0.00,WUHU216HW,2013-04-13 04:20:00,
2013-04-12 23:25:00,51.8,41.7,29.74,ESE,113,0.0,0.4,68,0.00,,,0.00,WUHU216HW,2013-04-13 04:25:00,
2013-04-12 23:30:00,51.7,41.5,29.74,ESE,113,0.0,0.4,68,0.00,,,0.00,WUHU216HW,2013-04-13 04:30:00,
2013-04-12 23:35:00,51.5,41.7,29.74,ESE,113,0.2,0.9,69,0.00,,,0.00,WUHU216HW,2013-04-13 04:35:00,
2013-04-12 23:40:00,51.7,41.9,29.74,ESE,113,0.4,0.9,69,0.00,,,0.00,WUHU216HW,2013-04-13 04:40:00,
2013-04-12 23:45:00,51.7,41.9,29.74,ESE,113,0.4,0.7,69,0.00,,,0.00,WUHU216HW,2013-04-13 04:45:00,
2013-04-12 23:50:00,51.7,42.3,29.74,ESE,113,0.2,0.4,70,0.00,,,0.00,WUHU216HW,2013-04-13 04:50:00,
2013-04-12 23:55:00,51.7,42.7,29.74,ESE,113,0.0,0.2,71,0.00,,,0.00,WUHU216HW,2013-04-13 04:55:00,